createdAt,value
2023-05-14T00:00:22.344Z,94232.22
2023-05-14T00:02:49.221Z,94232.94
2023-05-14T00:05:15.870Z,94227.00
2023-05-14T00:07:42.312Z,94223.28
2023-05-14T00:10:09.205Z,94221.28
2023-05-14T00:12:35.677Z,94214.53
2023-05-14T00:15:02.518Z,94206.50
2023-05-14T00:17:29.068Z,94210.84
2023-05-14T00:19:55.616Z,94207.75
2023-05-14T00:22:22.151Z,94206.22
2023-05-14T00:24:48.644Z,94207.88
2023-05-14T00:27:15.068Z,94201.09
2023-05-14T00:29:41.552Z,94206.16
2023-05-14T00:32:08.261Z,94200.16
2023-05-14T00:34:35.067Z,94203.81
2023-05-14T00:37:01.879Z,94199.38
2023-05-14T00:39:28.338Z,94198.31
2023-05-14T00:41:54.744Z,94201.22
2023-05-14T00:44:21.225Z,94201.50
2023-05-14T00:46:47.927Z,94201.22
2023-05-14T00:49:15.239Z,94195.72
2023-05-14T00:51:42.213Z,94198.31
2023-05-14T00:54:09.265Z,94194.63
2023-05-14T00:56:35.924Z,94199.06
2023-05-14T00:59:02.437Z,94198.03
2023-05-14T01:01:29.037Z,94198.81
2023-05-14T01:03:57.865Z,94198.03
2023-05-14T01:06:33.235Z,94191.25
2023-05-14T01:09:12.781Z,94199.38
2023-05-14T01:12:01.028Z,94198.13
2023-05-14T01:14:31.886Z,94193.69
2023-05-14T01:17:00.058Z,94198.13
2023-05-14T01:19:39.711Z,94195.53
2023-05-14T01:22:06.583Z,94194.44
2023-05-14T01:24:33.099Z,94191.84
2023-05-14T01:27:23.878Z,94184.50
2023-05-14T01:30:08.194Z,94187.91
2023-05-14T01:32:36.026Z,94180.81
2023-05-14T01:35:03.963Z,94187.59
2023-05-14T01:37:32.410Z,94187.59
2023-05-14T01:40:00.623Z,94186.03
2023-05-14T01:42:28.552Z,94166.19
2023-05-14T01:44:55.864Z,94180.81
2023-05-14T01:47:22.669Z,94181.59
2023-05-14T01:49:49.311Z,94180.34
2023-05-14T01:52:16.494Z,94185.56
2023-05-14T01:54:43.149Z,94184.00
2023-05-14T01:57:09.609Z,94190.31
2023-05-14T01:59:36.253Z,94181.41
2023-05-14T02:02:02.776Z,94179.56
2023-05-14T02:04:29.347Z,94175.72
2023-05-14T02:06:56.054Z,94178.63
2023-05-14T02:09:24.504Z,94175.72
2023-05-14T02:11:50.943Z,94173.13
2023-05-14T02:14:17.441Z,94171.59
2023-05-14T02:16:44.229Z,94174.78
2023-05-14T02:19:11.177Z,94172.75
2023-05-14T02:21:37.646Z,94173.34
2023-05-14T02:24:04.281Z,94173.34
2023-05-14T02:26:30.724Z,94166.56
2023-05-14T02:28:57.281Z,94176.41
2023-05-14T02:31:24.331Z,94174.88
2023-05-14T02:33:51.654Z,94175.47
2023-05-14T02:36:18.657Z,94168.13
2023-05-14T02:38:45.271Z,94177.56
2023-05-14T02:41:11.843Z,94171.41
2023-05-14T02:43:38.345Z,94176.16
2023-05-14T02:46:04.977Z,94173.81
2023-05-14T02:48:31.494Z,94161.00
2023-05-14T02:50:58.033Z,94171.03
2023-05-14T02:53:24.532Z,94179.91
2023-05-14T02:55:51.083Z,94180.03
2023-05-14T02:58:17.654Z,94174.81
2023-05-14T03:00:44.095Z,94171.22
2023-05-14T03:03:11.081Z,94170.19
2023-05-14T03:05:38.088Z,94169.19
2023-05-14T03:08:04.668Z,94172.13
2023-05-14T03:10:32.802Z,94176.06
2023-05-14T03:12:59.277Z,94166.81
2023-05-14T03:15:25.766Z,94162.53
2023-05-14T03:17:52.300Z,94161.78
2023-05-14T03:20:18.846Z,94167.28
2023-05-14T03:22:45.822Z,94161.00
2023-05-14T03:25:13.859Z,94156.38
2023-05-14T03:27:40.334Z,94154.81
2023-05-14T03:30:07.470Z,94148.28
2023-05-14T03:32:34.140Z,94158.22
2023-05-14T03:35:00.672Z,94158.50
2023-05-14T03:37:27.104Z,94155.41
2023-05-14T03:39:53.517Z,94158.00
2023-05-14T03:42:19.946Z,94158.50
2023-05-14T03:44:47.421Z,94151.94
2023-05-14T03:47:13.849Z,94153.78
2023-05-14T03:49:40.344Z,94158.50
2023-05-14T03:52:09.693Z,94155.59
2023-05-14T03:54:36.218Z,94151.16
2023-05-14T03:57:02.693Z,94146.44
2023-05-14T03:59:29.124Z,94140.28
2023-05-14T04:01:55.559Z,94159.94
2023-05-14T04:04:21.991Z,94155.50
2023-05-14T04:06:48.602Z,94159.34
2023-05-14T04:09:15.286Z,94162.75
2023-05-14T04:11:41.779Z,94162.16
2023-05-14T04:14:08.276Z,94153.28
2023-05-14T04:16:34.764Z,94158.19
2023-05-14T04:19:03.744Z,94154.53
2023-05-14T04:21:30.351Z,94156.38
2023-05-14T04:23:56.791Z,94159.19
2023-05-14T04:26:23.631Z,94154.44
2023-05-14T04:28:50.086Z,94151.53
2023-05-14T04:31:16.549Z,94152.03
2023-05-14T04:33:43.012Z,94153.56
2023-05-14T04:36:09.520Z,94153.56
2023-05-14T04:38:35.943Z,94154.63
2023-05-14T04:41:02.362Z,94153.28
2023-05-14T04:43:28.781Z,94150.38
2023-05-14T04:45:55.237Z,94148.22
2023-05-14T04:48:22.417Z,94143.53
2023-05-14T04:50:48.851Z,94141.66
2023-05-14T04:53:15.403Z,94144.56
2023-05-14T04:55:42.070Z,94150.09
2023-05-14T04:58:08.493Z,94150.56
2023-05-14T05:00:34.926Z,94133.59
2023-05-14T05:03:01.513Z,94153.06
2023-05-14T05:05:28.028Z,94151.22
2023-05-14T05:07:54.773Z,94148.16
2023-05-14T05:10:21.543Z,94156.13
2023-05-14T05:12:48.245Z,94157.69
2023-05-14T05:15:14.696Z,94152.94
2023-05-14T05:17:41.226Z,94145.25
2023-05-14T05:20:09.798Z,94147.66
2023-05-14T05:22:36.738Z,94146.41
2023-05-14T05:25:06.216Z,94144.97
2023-05-14T05:27:35.597Z,94145.94
2023-05-14T05:30:02.366Z,94148.34
2023-05-14T05:32:28.844Z,94145.47
2023-05-14T05:34:55.372Z,94144.56
2023-05-14T05:37:21.821Z,94144.75
2023-05-14T05:39:48.350Z,94141.06
2023-05-14T05:42:14.978Z,94141.84
2023-05-14T05:44:41.519Z,94149.56
2023-05-14T05:47:07.975Z,94141.28
2023-05-14T05:49:34.371Z,94149.75
2023-05-14T05:52:00.873Z,94153.41
2023-05-14T05:54:27.277Z,94148.97
2023-05-14T05:56:53.682Z,94147.16
2023-05-14T05:59:20.115Z,94155.16
2023-05-14T06:01:46.550Z,94145.69
2023-05-14T06:04:12.973Z,94152.13
2023-05-14T06:06:39.407Z,94153.03
2023-05-14T06:09:07.066Z,94148.59
2023-05-14T06:11:33.617Z,94145.50
2023-05-14T06:14:00.237Z,94138.94
2023-05-14T06:16:26.702Z,94152.22
2023-05-14T06:18:54.500Z,94148.91
2023-05-14T06:21:21.271Z,94143.28
2023-05-14T06:23:47.724Z,94158.34
2023-05-14T06:26:14.207Z,94155.03
2023-05-14T06:28:40.665Z,94153.53
2023-05-14T06:31:07.113Z,94159.59
2023-05-14T06:33:33.556Z,94155.59
2023-05-14T06:36:01.072Z,94158.88
2023-05-14T06:38:27.576Z,94160.88
2023-05-14T06:40:54.040Z,94164.91
2023-05-14T06:43:20.886Z,94158.47
2023-05-14T06:45:51.574Z,94164.66
2023-05-14T06:48:19.016Z,94163.09
2023-05-14T06:50:47.216Z,94159.91
2023-05-14T06:53:14.386Z,94160.41
2023-05-14T06:55:41.011Z,94162.88
2023-05-14T06:58:08.114Z,94157.50
2023-05-14T07:00:34.716Z,94160.00
2023-05-14T07:03:01.224Z,94159.03
2023-05-14T07:05:27.697Z,94169.38
2023-05-14T07:07:54.113Z,94155.22
2023-05-14T07:10:20.783Z,94163.09
2023-05-14T07:12:47.780Z,94165.31
2023-05-14T07:15:14.199Z,94163.59
2023-05-14T07:17:40.914Z,94160.41
2023-05-14T07:20:07.970Z,94160.25
2023-05-14T07:22:34.395Z,94163.50
2023-05-14T07:25:00.841Z,94160.59
2023-05-14T07:27:27.240Z,94159.22
2023-05-14T07:29:53.656Z,94143.06
2023-05-14T07:32:20.111Z,94156.63
2023-05-14T07:34:46.635Z,94152.75
2023-05-14T07:37:13.119Z,94157.41
2023-05-14T07:39:41.584Z,94152.03
2023-05-14T07:42:08.035Z,94145.69
2023-05-14T07:44:34.491Z,94155.25
2023-05-14T07:47:00.975Z,94148.66
2023-05-14T07:49:27.456Z,94158.34
2023-05-14T07:51:53.888Z,94155.25
2023-05-14T07:54:20.322Z,94155.09
2023-05-14T07:56:46.769Z,94159.88
2023-05-14T07:59:13.202Z,94161.63
2023-05-14T08:01:39.708Z,94157.75
2023-05-14T08:04:06.382Z,94156.03
2023-05-14T08:06:33.238Z,94164.34
2023-05-14T08:08:59.699Z,94159.25
2023-05-14T08:11:26.226Z,94158.31
2023-05-14T08:13:52.753Z,94153.41
2023-05-14T08:16:19.300Z,94161.25
2023-05-14T08:18:45.843Z,94148.50
2023-05-14T08:21:12.422Z,94148.53
2023-05-14T08:23:38.899Z,94149.16
2023-05-14T08:26:05.348Z,94147.78
2023-05-14T08:28:31.898Z,94151.50
2023-05-14T08:30:58.324Z,94151.63
2023-05-14T08:33:24.836Z,94142.38
2023-05-14T08:35:54.675Z,94138.66
2023-05-14T08:38:21.104Z,94141.75
2023-05-14T08:40:58.606Z,94143.16
2023-05-14T08:43:35.849Z,94141.50
2023-05-14T08:46:06.504Z,94137.81
2023-05-14T08:48:34.347Z,94144.13
2023-05-14T08:51:01.849Z,94142.91
2023-05-14T08:53:28.535Z,94141.38
2023-05-14T08:55:55.050Z,94133.66
2023-05-14T08:58:21.610Z,94142.28
2023-05-14T09:00:48.198Z,94127.53
2023-05-14T09:03:15.968Z,94128.59
2023-05-14T09:05:43.019Z,94130.91
2023-05-14T09:08:09.451Z,94134.59
2023-05-14T09:10:36.080Z,94130.91
2023-05-14T09:13:02.506Z,94131.69
2023-05-14T09:15:29.673Z,94133.22
2023-05-14T09:17:56.692Z,94131.22
2023-05-14T09:20:25.128Z,94131.38
2023-05-14T09:22:54.810Z,94128.91
2023-05-14T09:25:26.979Z,94129.81
2023-05-14T09:27:55.696Z,94128.31
2023-05-14T09:30:25.338Z,94115.53
2023-05-14T09:32:54.724Z,94105.34
2023-05-14T09:35:24.899Z,94113.03
2023-05-14T09:37:53.864Z,94113.19
2023-05-14T09:40:22.636Z,94102.38
2023-05-14T09:42:49.787Z,94100.66
2023-05-14T09:45:17.187Z,94102.31
2023-05-14T09:47:45.014Z,94097.75
2023-05-14T09:50:12.247Z,94094.47
2023-05-14T09:52:39.243Z,94097.25
2023-05-14T09:55:06.372Z,94078.97
2023-05-14T09:57:33.547Z,94087.25
2023-05-14T10:00:00.058Z,94085.94
2023-05-14T10:02:41.070Z,94088.28
2023-05-14T10:05:07.987Z,94085.03
2023-05-14T10:07:40.080Z,94072.13
2023-05-14T10:10:09.415Z,94087.31
2023-05-14T10:12:39.312Z,94078.34
2023-05-14T10:15:13.015Z,94080.72
2023-05-14T10:17:41.007Z,94085.25
2023-05-14T10:20:10.091Z,94080.28
2023-05-14T10:22:36.696Z,94079.09
2023-05-14T10:25:04.218Z,94073.34
2023-05-14T10:27:31.270Z,94078.38
2023-05-14T10:29:58.042Z,94075.97
2023-05-14T10:32:26.429Z,94076.16
2023-05-14T10:34:53.780Z,94079.56
2023-05-14T10:37:25.913Z,94081.22
2023-05-14T10:40:01.482Z,94074.88
2023-05-14T10:42:32.193Z,94071.41
2023-05-14T10:45:01.972Z,94066.72
2023-05-14T10:47:29.393Z,94063.56
2023-05-14T10:49:58.244Z,94073.78
2023-05-14T10:52:25.598Z,94051.59
2023-05-14T10:54:56.953Z,94054.94
2023-05-14T10:57:27.184Z,94042.69
2023-05-14T10:59:56.506Z,94040.53
2023-05-14T11:02:34.715Z,94038.47
2023-05-14T11:05:09.248Z,94031.75
2023-05-14T11:07:43.743Z,94036.75
2023-05-14T11:10:12.644Z,94036.19
2023-05-14T11:12:42.084Z,94031.72
2023-05-14T11:15:11.034Z,94029.66
2023-05-14T11:17:40.033Z,94031.00
2023-05-14T11:20:08.159Z,94028.94
2023-05-14T11:22:35.797Z,94024.13
2023-05-14T11:25:02.581Z,94014.84
2023-05-14T11:27:30.059Z,94031.47
2023-05-14T11:29:58.114Z,94024.66
2023-05-14T11:32:24.750Z,94021.78
2023-05-14T11:34:51.358Z,94025.50
2023-05-14T11:37:18.261Z,94019.19
2023-05-14T11:40:03.008Z,94016.50
2023-05-14T11:42:29.462Z,94003.88
2023-05-14T11:44:55.879Z,94009.28
2023-05-14T11:47:23.008Z,94012.72
2023-05-14T11:49:49.735Z,94010.44
2023-05-14T11:52:19.543Z,94008.06
2023-05-14T11:54:46.992Z,94005.66
2023-05-14T11:57:16.298Z,94006.19
2023-05-14T11:59:43.065Z,94008.88
2023-05-14T12:02:13.840Z,94008.69
2023-05-14T12:04:42.221Z,93999.03
2023-05-14T12:07:13.368Z,93999.22
2023-05-14T12:09:49.790Z,94004.44
2023-05-14T12:12:23.048Z,94009.09
2023-05-14T12:14:50.598Z,94001.66
2023-05-14T12:17:19.689Z,93995.56
2023-05-14T12:19:48.266Z,93994.25
2023-05-14T12:22:17.370Z,93997.75
2023-05-14T12:24:52.252Z,93987.78
2023-05-14T12:27:23.465Z,93988.66
2023-05-14T12:29:53.404Z,93990.09
2023-05-14T12:32:20.294Z,93990.75
2023-05-14T12:34:46.833Z,93988.63
2023-05-14T12:37:13.256Z,93989.75
2023-05-14T12:39:39.744Z,93984.50
2023-05-14T12:42:06.433Z,93983.72
2023-05-14T12:44:32.874Z,93983.94
2023-05-14T12:46:59.420Z,93977.03
2023-05-14T12:49:25.976Z,93979.75
2023-05-14T12:52:03.248Z,93978.09
2023-05-14T12:54:42.840Z,93983.13
2023-05-14T12:57:09.524Z,93981.91
2023-05-14T12:59:36.163Z,93978.41
2023-05-14T13:02:02.614Z,93982.78
2023-05-14T13:04:29.173Z,93977.19
2023-05-14T13:06:55.934Z,93974.25
2023-05-14T13:09:22.371Z,93968.66
2023-05-14T13:11:48.830Z,93962.97
2023-05-14T13:14:15.582Z,93959.28
2023-05-14T13:16:42.360Z,93964.88
2023-05-14T13:19:09.075Z,93956.34
2023-05-14T13:21:35.651Z,93956.34
2023-05-14T13:24:02.102Z,93951.78
2023-05-14T13:26:28.743Z,93946.38
2023-05-14T13:28:55.263Z,93947.78
2023-05-14T13:31:21.766Z,93944.19
2023-05-14T13:33:48.236Z,93945.88
2023-05-14T13:36:16.135Z,93931.50
2023-05-14T13:38:42.648Z,93935.91
2023-05-14T13:41:09.112Z,93932.91
2023-05-14T13:43:35.930Z,93925.38
2023-05-14T13:46:03.725Z,93926.63
2023-05-14T13:48:31.097Z,93914.69
2023-05-14T13:50:57.906Z,93918.03
2023-05-14T13:53:25.152Z,93908.22
2023-05-14T13:55:58.001Z,93918.13
2023-05-14T13:58:25.470Z,93916.81
2023-05-14T14:00:52.695Z,93921.06
2023-05-14T14:03:19.314Z,93914.34
2023-05-14T14:05:45.832Z,93910.78
2023-05-14T14:08:22.782Z,93914.44
2023-05-14T14:10:50.796Z,93902.63
2023-05-14T14:13:17.219Z,93896.81
2023-05-14T14:15:44.288Z,93900.13
2023-05-14T14:18:10.817Z,93899.28
2023-05-14T14:20:37.363Z,93901.50
2023-05-14T14:23:03.874Z,93900.31
2023-05-14T14:25:30.300Z,93902.69
2023-05-14T14:27:56.835Z,93899.75
2023-05-14T14:30:23.534Z,93899.47
2023-05-14T14:32:50.459Z,93904.78
2023-05-14T14:35:18.879Z,93894.25
2023-05-14T14:37:49.107Z,93901.38
2023-05-14T14:40:16.745Z,93895.59
2023-05-14T14:42:44.198Z,93900.22
2023-05-14T14:45:12.068Z,93895.63
2023-05-14T14:47:38.758Z,93909.03
2023-05-14T14:50:06.174Z,93902.84
2023-05-14T14:52:32.777Z,93897.63
2023-05-14T14:54:59.238Z,93892.13
2023-05-14T14:57:26.936Z,93889.75
2023-05-14T14:59:53.595Z,93892.63
2023-05-14T15:02:20.235Z,93892.63
2023-05-14T15:04:46.838Z,93883.78
2023-05-14T15:07:13.645Z,93893.72
2023-05-14T15:09:40.051Z,93890.78
2023-05-14T15:12:07.994Z,93893.00
2023-05-14T15:14:35.084Z,93892.16
2023-05-14T15:17:01.679Z,93887.84
2023-05-14T15:19:29.406Z,93899.81
2023-05-14T15:21:55.890Z,93897.50
2023-05-14T15:24:23.990Z,93891.16
2023-05-14T15:26:52.048Z,93891.53
2023-05-14T15:29:19.946Z,93888.72
2023-05-14T15:31:46.710Z,93887.22
2023-05-14T15:34:13.332Z,93882.75
2023-05-14T15:36:39.824Z,93890.41
2023-05-14T15:39:06.295Z,93888.63
2023-05-14T15:41:34.358Z,93887.53
2023-05-14T15:44:00.877Z,93885.97
2023-05-14T15:46:27.412Z,93888.06
2023-05-14T15:48:53.970Z,93886.63
2023-05-14T15:51:20.535Z,93883.19
2023-05-14T15:53:47.024Z,93885.19
2023-05-14T15:56:13.515Z,93888.25
2023-05-14T15:58:39.987Z,93886.84
2023-05-14T16:01:06.411Z,93891.25
2023-05-14T16:03:32.895Z,93894.06
2023-05-14T16:05:59.651Z,93886.44
2023-05-14T16:08:26.093Z,93897.16
2023-05-14T16:10:52.544Z,93880.44
2023-05-14T16:13:19.397Z,93890.94
2023-05-14T16:15:45.871Z,93893.91
2023-05-14T16:18:12.484Z,93892.38
2023-05-14T16:20:39.135Z,93895.50
2023-05-14T16:23:05.583Z,93898.63
2023-05-14T16:25:32.089Z,93886.91
2023-05-14T16:27:58.571Z,93893.00
2023-05-14T16:30:25.185Z,93892.63
2023-05-14T16:32:51.860Z,93894.06
2023-05-14T16:35:18.344Z,93893.34
2023-05-14T16:37:44.850Z,93902.44
2023-05-14T16:40:12.006Z,93898.31
2023-05-14T16:42:39.063Z,93900.91
2023-05-14T16:45:06.302Z,93899.34
2023-05-14T16:47:32.811Z,93895.00
2023-05-14T16:49:59.303Z,93897.47
2023-05-14T16:52:25.722Z,93887.44
2023-05-14T16:54:52.137Z,93887.81
2023-05-14T16:57:18.584Z,93886.41
2023-05-14T16:59:45.038Z,93895.81
2023-05-14T17:02:11.440Z,93889.22
2023-05-14T17:04:40.902Z,93883.53
2023-05-14T17:07:07.790Z,93889.53
2023-05-14T17:09:34.228Z,93884.19
2023-05-14T17:12:00.708Z,93872.81
2023-05-14T17:14:27.340Z,93876.56
2023-05-14T17:16:54.385Z,93882.50
2023-05-14T17:19:21.026Z,93879.53
2023-05-14T17:21:47.893Z,93882.56
2023-05-14T17:24:14.477Z,93883.97
2023-05-14T17:26:41.050Z,93884.00
2023-05-14T17:29:07.452Z,93881.84
2023-05-14T17:31:33.915Z,93887.22
2023-05-14T17:34:00.770Z,93883.59
2023-05-14T17:36:28.609Z,93889.41
2023-05-14T17:38:55.243Z,93885.81
2023-05-14T17:41:21.679Z,93895.00
2023-05-14T17:43:48.146Z,93892.75
2023-05-14T17:46:14.970Z,93896.47
2023-05-14T17:48:43.787Z,93891.91
2023-05-14T17:51:10.377Z,93888.00
2023-05-14T17:53:37.559Z,93894.22
2023-05-14T17:56:04.854Z,93899.69
2023-05-14T17:58:31.335Z,93909.47
2023-05-14T18:00:58.206Z,93907.94
2023-05-14T18:03:24.880Z,93912.38
2023-05-14T18:05:51.941Z,93916.66
2023-05-14T18:08:18.402Z,93917.56
2023-05-14T18:10:44.910Z,93910.16
2023-05-14T18:13:11.314Z,93912.69
2023-05-14T18:15:37.879Z,93906.44
2023-05-14T18:18:04.698Z,93922.22
2023-05-14T18:20:32.807Z,93919.94
2023-05-14T18:23:00.608Z,93926.16
2023-05-14T18:25:27.150Z,93926.69
2023-05-14T18:27:54.163Z,93927.63
2023-05-14T18:30:20.763Z,93933.09
2023-05-14T18:32:47.258Z,93930.41
2023-05-14T18:35:14.616Z,93932.78
2023-05-14T18:37:41.191Z,93940.03
2023-05-14T18:40:08.702Z,93943.44
2023-05-14T18:42:35.313Z,93939.25
2023-05-14T18:45:02.206Z,93934.63
2023-05-14T18:47:28.902Z,93944.44
2023-05-14T18:49:57.987Z,93945.09
2023-05-14T18:52:24.725Z,93943.03
2023-05-14T18:54:51.196Z,93939.63
2023-05-14T18:57:17.807Z,93939.00
2023-05-14T18:59:44.313Z,93945.09
2023-05-14T19:02:10.865Z,93944.53
2023-05-14T19:04:50.585Z,93938.59
2023-05-14T19:07:18.746Z,93933.75
2023-05-14T19:09:45.608Z,93930.13
2023-05-14T19:12:12.540Z,93944.47
2023-05-14T19:14:39.010Z,93947.72
2023-05-14T19:17:05.760Z,93943.47
2023-05-14T19:19:32.544Z,93946.69
2023-05-14T19:21:59.079Z,93949.03
2023-05-14T19:24:25.829Z,93959.94
2023-05-14T19:26:52.498Z,93957.34
2023-05-14T19:29:18.958Z,93958.88
2023-05-14T19:31:45.370Z,93952.88
2023-05-14T19:34:11.807Z,93958.88
2023-05-14T19:36:38.327Z,93949.31
2023-05-14T19:39:05.145Z,93945.47
2023-05-14T19:41:31.609Z,93950.41
2023-05-14T19:43:58.129Z,93951.47
2023-05-14T19:46:24.683Z,93953.03
2023-05-14T19:48:51.164Z,93959.78
2023-05-14T19:51:17.649Z,93960.41
2023-05-14T19:53:44.090Z,93960.88
2023-05-14T19:56:10.904Z,93954.09
2023-05-14T19:58:37.471Z,93948.09
2023-05-14T20:01:04.331Z,93953.34
2023-05-14T20:03:30.923Z,93953.06
2023-05-14T20:05:57.959Z,93947.97
2023-05-14T20:08:24.921Z,93943.66
2023-05-14T20:10:51.433Z,93945.66
2023-05-14T20:13:17.867Z,93947.53
2023-05-14T20:15:44.398Z,93946.75
2023-05-14T20:18:10.831Z,93950.44
2023-05-14T20:20:37.412Z,93958.00
2023-05-14T20:23:03.814Z,93954.13
2023-05-14T20:25:32.762Z,93948.91
2023-05-14T20:28:00.360Z,93950.28
2023-05-14T20:30:27.740Z,93947.22
2023-05-14T20:32:54.273Z,93947.81
2023-05-14T20:35:20.777Z,93946.91
2023-05-14T20:37:47.356Z,93944.56
2023-05-14T20:40:13.941Z,93933.34
2023-05-14T20:42:40.658Z,93942.28
2023-05-14T20:45:07.794Z,93933.22
2023-05-14T20:47:35.672Z,93935.34
2023-05-14T20:50:02.249Z,93936.00
2023-05-14T20:52:28.819Z,93934.59
2023-05-14T20:54:55.265Z,93932.44
2023-05-14T20:57:22.456Z,93937.22
2023-05-14T20:59:49.075Z,93930.44
2023-05-14T21:02:15.875Z,93928.44
2023-05-14T21:04:42.737Z,93928.00
2023-05-14T21:07:09.370Z,93920.91
2023-05-14T21:09:35.829Z,93927.22
2023-05-14T21:12:02.287Z,93922.94
2023-05-14T21:14:28.754Z,93918.16
2023-05-14T21:16:55.340Z,93920.75
2023-05-14T21:19:22.840Z,93919.38
2023-05-14T21:21:49.442Z,93930.00
2023-05-14T21:24:16.746Z,93932.44
2023-05-14T21:26:43.253Z,93932.91
2023-05-14T21:29:09.723Z,93934.13
2023-05-14T21:31:36.203Z,93928.59
2023-05-14T21:34:02.820Z,93930.13
2023-05-14T21:36:29.306Z,93919.66
2023-05-14T21:38:55.773Z,93927.50
2023-05-14T21:41:23.267Z,93914.75
2023-05-14T21:43:49.740Z,93921.81
2023-05-14T21:46:16.407Z,93912.91
2023-05-14T21:48:43.007Z,93918.13
2023-05-14T21:51:09.550Z,93917.03
2023-05-14T21:53:36.003Z,93921.22
2023-05-14T21:56:02.441Z,93919.66
2023-05-14T21:58:28.923Z,93922.28
2023-05-14T22:00:55.416Z,93913.38
2023-05-14T22:03:22.036Z,93920.88
2023-05-14T22:05:49.193Z,93916.44
2023-05-14T22:08:17.525Z,93910.44
2023-05-14T22:10:44.414Z,93907.06
2023-05-14T22:13:11.024Z,93912.75
2023-05-14T22:15:37.941Z,93909.06
2023-05-14T22:18:04.708Z,93912.16
2023-05-14T22:20:31.369Z,93913.69
2023-05-14T22:22:57.793Z,93906.94
2023-05-14T22:25:24.422Z,93906.94
2023-05-14T22:27:51.097Z,93906.44
2023-05-14T22:30:17.521Z,93900.75
2023-05-14T22:32:44.030Z,93903.19
2023-05-14T22:35:11.229Z,93904.13
2023-05-14T22:37:37.686Z,93908.47
2023-05-14T22:40:05.184Z,93907.84
2023-05-14T22:42:31.641Z,93902.75
2023-05-14T22:44:58.082Z,93894.94
2023-05-14T22:47:25.801Z,93899.56
2023-05-14T22:49:52.676Z,93899.84
2023-05-14T22:52:19.174Z,93896.47
2023-05-14T22:54:46.598Z,93895.69
2023-05-14T22:57:13.131Z,93895.25
2023-05-14T22:59:39.700Z,93894.34
2023-05-14T23:02:06.799Z,93886.50
2023-05-14T23:04:33.561Z,93895.88
2023-05-14T23:07:00.063Z,93889.72
2023-05-14T23:09:26.542Z,93883.09
2023-05-14T23:11:53.067Z,93886.31
2023-05-14T23:14:19.649Z,93889.69
2023-05-14T23:16:46.230Z,93883.69
2023-05-14T23:19:13.002Z,93876.34
2023-05-14T23:21:39.609Z,93877.56
2023-05-14T23:24:06.354Z,93873.59
2023-05-14T23:26:32.916Z,93871.44
2023-05-14T23:28:59.353Z,93869.75
2023-05-14T23:31:25.869Z,93874.94
2023-05-14T23:33:52.280Z,93870.19
2023-05-14T23:36:18.791Z,93869.88
2023-05-14T23:38:45.575Z,93859.72
2023-05-14T23:41:12.022Z,93858.66
2023-05-14T23:43:38.474Z,93855.59
2023-05-14T23:46:05.209Z,93855.59
2023-05-14T23:48:31.898Z,93851.44
2023-05-14T23:50:58.339Z,93860.06
2023-05-14T23:53:24.901Z,93853.28
2023-05-14T23:55:51.415Z,93850.66
2023-05-14T23:58:18.028Z,93845.00
